GLD965 SBSP-SBRJ
Flight info
| Callsign | GLD965 |
|---|---|
| Flight time | N/A |
| Altitude | 23000 |
| Route | NIBRU UZ171 KEVUN |
| Aircraft | PC12/L-SDFGRWY/S |
Departure
| Time | N/A |
|---|---|
| Airport | Congonhas–Deputado Freitas Nobre Airport (SBSP) |
Arrival
| Time | 2026-05-06 23:46 |
|---|---|
| Airport | Santos Dumont Airport (SBRJ) |
| Time | Latitude | Longitude | Altitude | Speed | Heading |
|---|---|---|---|---|---|
| 2026-05-06 23:13 | -23.51769 | -45.20768 | 19624 ft | 256 kts | 78° |
| 2026-05-06 23:13 | -23.51367 | -45.18879 | 19779 ft | 256 kts | 78° |
| 2026-05-06 23:13 | -23.50964 | -45.16985 | 19918 ft | 257 kts | 78° |
| 2026-05-06 23:13 | -23.50559 | -45.15087 | 20045 ft | 257 kts | 77° |
| 2026-05-06 23:14 | -23.50159 | -45.13213 | 20177 ft | 257 kts | 78° |
| 2026-05-06 23:14 | -23.49754 | -45.11315 | 20321 ft | 257 kts | 78° |
| 2026-05-06 23:14 | -23.49348 | -45.09413 | 20450 ft | 258 kts | 78° |
| 2026-05-06 23:14 | -23.48941 | -45.07507 | 20605 ft | 259 kts | 78° |
| 2026-05-06 23:15 | -23.48533 | -45.05605 | 20737 ft | 260 kts | 78° |
| 2026-05-06 23:15 | -23.48123 | -45.03684 | 20868 ft | 260 kts | 78° |
| 2026-05-06 23:15 | -23.47711 | -45.01764 | 20999 ft | 261 kts | 78° |
| 2026-05-06 23:15 | -23.47299 | -44.99837 | 21125 ft | 261 kts | 78° |
| 2026-05-06 23:16 | -23.46886 | -44.97914 | 21258 ft | 261 kts | 78° |
| 2026-05-06 23:16 | -23.46472 | -44.95985 | 21405 ft | 261 kts | 78° |
| 2026-05-06 23:16 | -23.45976 | -44.94097 | 21571 ft | 259 kts | 72° |
| 2026-05-06 23:16 | -23.45398 | -44.92239 | 21734 ft | 258 kts | 73° |
| 2026-05-06 23:17 | -23.44847 | -44.90386 | 21909 ft | 258 kts | 73° |
| 2026-05-06 23:17 | -23.44297 | -44.88550 | 22069 ft | 258 kts | 73° |
| 2026-05-06 23:17 | -23.43729 | -44.86673 | 22234 ft | 258 kts | 73° |
| 2026-05-06 23:17 | -23.43172 | -44.84844 | 22394 ft | 258 kts | 73° |
| 2026-05-06 23:18 | -23.42609 | -44.82984 | 22552 ft | 258 kts | 73° |
| 2026-05-06 23:18 | -23.42047 | -44.81125 | 22712 ft | 258 kts | 73° |
| 2026-05-06 23:18 | -23.41482 | -44.79267 | 22865 ft | 258 kts | 73° |
| 2026-05-06 23:18 | -23.40919 | -44.77408 | 23002 ft | 260 kts | 73° |
| 2026-05-06 23:19 | -23.40346 | -44.75519 | 23019 ft | 265 kts | 73° |
| 2026-05-06 23:19 | -23.39768 | -44.73618 | 23145 ft | 265 kts | 73° |
| 2026-05-06 23:19 | -23.39184 | -44.71698 | 23160 ft | 269 kts | 73° |
| 2026-05-06 23:19 | -23.38594 | -44.69754 | 23166 ft | 272 kts | 73° |
| 2026-05-06 23:20 | -23.37999 | -44.67798 | 23169 ft | 273 kts | 73° |
| 2026-05-06 23:20 | -23.37401 | -44.65833 | 23170 ft | 274 kts | 73° |
| 2026-05-06 23:20 | -23.36800 | -44.63863 | 23167 ft | 275 kts | 73° |
| 2026-05-06 23:20 | -23.36199 | -44.61885 | 23166 ft | 275 kts | 73° |
| 2026-05-06 23:21 | -23.35594 | -44.59908 | 23167 ft | 276 kts | 73° |
| 2026-05-06 23:21 | -23.34996 | -44.57942 | 23161 ft | 277 kts | 73° |
| 2026-05-06 23:21 | -23.34388 | -44.55946 | 23165 ft | 277 kts | 73° |
| 2026-05-06 23:21 | -23.33782 | -44.53962 | 23162 ft | 277 kts | 73° |
| 2026-05-06 23:22 | -23.33175 | -44.51975 | 23163 ft | 277 kts | 73° |
| 2026-05-06 23:22 | -23.32564 | -44.49981 | 23166 ft | 277 kts | 73° |
| 2026-05-06 23:22 | -23.31957 | -44.47993 | 23162 ft | 277 kts | 73° |
| 2026-05-06 23:22 | -23.31349 | -44.46005 | 23162 ft | 277 kts | 73° |
| 2026-05-06 23:23 | -23.30740 | -44.44015 | 23161 ft | 277 kts | 73° |
| 2026-05-06 23:23 | -23.30140 | -44.42052 | 23160 ft | 277 kts | 73° |
| 2026-05-06 23:23 | -23.29523 | -44.40038 | 23160 ft | 277 kts | 73° |
| 2026-05-06 23:23 | -23.28924 | -44.38086 | 23162 ft | 277 kts | 73° |
| 2026-05-06 23:24 | -23.28313 | -44.36093 | 22914 ft | 282 kts | 73° |
| 2026-05-06 23:24 | -23.27687 | -44.34045 | 21819 ft | 287 kts | 73° |
| 2026-05-06 23:24 | -23.27057 | -44.31994 | 20772 ft | 286 kts | 73° |
| 2026-05-06 23:24 | -23.26428 | -44.29952 | 19768 ft | 283 kts | 72° |
| 2026-05-06 23:25 | -23.25806 | -44.27929 | 18804 ft | 280 kts | 72° |
| 2026-05-06 23:25 | -23.25195 | -44.25937 | 17783 ft | 276 kts | 72° |
| 2026-05-06 23:25 | -23.24593 | -44.23982 | 16755 ft | 267 kts | 72° |
| 2026-05-06 23:25 | -23.24013 | -44.22099 | 15784 ft | 259 kts | 72° |
| 2026-05-06 23:26 | -23.23449 | -44.20265 | 14856 ft | 253 kts | 72° |
| 2026-05-06 23:26 | -23.22893 | -44.18459 | 13965 ft | 250 kts | 71° |
| 2026-05-06 23:26 | -23.22344 | -44.16678 | 12999 ft | 247 kts | 72° |
| 2026-05-06 23:26 | -23.21802 | -44.14924 | 12071 ft | 240 kts | 72° |
| 2026-05-06 23:27 | -23.21277 | -44.13217 | 11734 ft | 238 kts | 72° |
| 2026-05-06 23:27 | -23.20753 | -44.11519 | 11856 ft | 237 kts | 72° |
| 2026-05-06 23:27 | -23.20227 | -44.09821 | 11942 ft | 238 kts | 72° |
| 2026-05-06 23:27 | -23.19692 | -44.08083 | 11675 ft | 245 kts | 72° |
| 2026-05-06 23:28 | -23.19151 | -44.06330 | 11312 ft | 249 kts | 72° |
| 2026-05-06 23:28 | -23.18597 | -44.04538 | 10961 ft | 251 kts | 72° |
| 2026-05-06 23:28 | -23.18040 | -44.02739 | 10603 ft | 251 kts | 72° |
| 2026-05-06 23:28 | -23.17487 | -44.00947 | 10353 ft | 248 kts | 72° |
| 2026-05-06 23:29 | -23.16939 | -43.99182 | 10106 ft | 246 kts | 72° |
| 2026-05-06 23:29 | -23.16397 | -43.97430 | 9841 ft | 241 kts | 72° |
| 2026-05-06 23:29 | -23.15872 | -43.95734 | 9555 ft | 233 kts | 72° |
| 2026-05-06 23:29 | -23.15360 | -43.94084 | 9265 ft | 228 kts | 72° |
| 2026-05-06 23:30 | -23.14856 | -43.92459 | 8985 ft | 226 kts | 72° |
| 2026-05-06 23:30 | -23.14356 | -43.90847 | 8703 ft | 224 kts | 72° |
| 2026-05-06 23:30 | -23.13860 | -43.89247 | 8430 ft | 223 kts | 72° |
| 2026-05-06 23:30 | -23.13366 | -43.87656 | 8158 ft | 222 kts | 72° |
| 2026-05-06 23:31 | -23.12874 | -43.86072 | 7895 ft | 221 kts | 72° |
| 2026-05-06 23:31 | -23.12384 | -43.84494 | 7633 ft | 220 kts | 72° |
| 2026-05-06 23:31 | -23.11894 | -43.82920 | 7372 ft | 219 kts | 72° |
| 2026-05-06 23:31 | -23.11414 | -43.81370 | 7121 ft | 219 kts | 72° |
| 2026-05-06 23:32 | -23.10928 | -43.79806 | 6874 ft | 218 kts | 72° |
| 2026-05-06 23:32 | -23.10441 | -43.78245 | 6624 ft | 218 kts | 72° |
| 2026-05-06 23:32 | -23.09953 | -43.76681 | 6364 ft | 218 kts | 72° |
| 2026-05-06 23:32 | -23.09469 | -43.75122 | 6098 ft | 217 kts | 72° |
| 2026-05-06 23:33 | -23.08987 | -43.73579 | 6015 ft | 209 kts | 72° |
| 2026-05-06 23:33 | -23.08529 | -43.72110 | 6021 ft | 202 kts | 72° |
| 2026-05-06 23:33 | -23.08090 | -43.70700 | 6017 ft | 198 kts | 72° |
| 2026-05-06 23:33 | -23.07653 | -43.69300 | 6020 ft | 195 kts | 72° |
| 2026-05-06 23:34 | -23.07219 | -43.67906 | 6019 ft | 194 kts | 72° |
| 2026-05-06 23:34 | -23.06788 | -43.66525 | 6020 ft | 193 kts | 72° |
| 2026-05-06 23:34 | -23.06358 | -43.65148 | 6020 ft | 192 kts | 72° |
| 2026-05-06 23:34 | -23.05930 | -43.63777 | 6019 ft | 192 kts | 72° |
| 2026-05-06 23:35 | -23.05574 | -43.62638 | 6020 ft | 192 kts | 72° |
| 2026-05-06 23:35 | -23.05146 | -43.61270 | 6022 ft | 192 kts | 72° |
| 2026-05-06 23:35 | -23.04718 | -43.59900 | 6019 ft | 191 kts | 72° |
| 2026-05-06 23:35 | -23.04291 | -43.58533 | 6021 ft | 191 kts | 72° |
| 2026-05-06 23:36 | -23.03863 | -43.57163 | 6021 ft | 191 kts | 72° |
| 2026-05-06 23:36 | -23.03432 | -43.55795 | 6024 ft | 191 kts | 71° |
| 2026-05-06 23:36 | -23.02893 | -43.54476 | 6020 ft | 191 kts | 65° |
| 2026-05-06 23:36 | -23.02356 | -43.53266 | 6017 ft | 187 kts | 65° |
| 2026-05-06 23:37 | -23.01807 | -43.52035 | 5930 ft | 180 kts | 65° |
| 2026-05-06 23:37 | -23.01245 | -43.50801 | 5652 ft | 184 kts | 63° |
| 2026-05-06 23:37 | -23.00639 | -43.49593 | 5392 ft | 185 kts | 62° |
| 2026-05-06 23:37 | -23.00032 | -43.48384 | 5136 ft | 176 kts | 62° |
| 2026-05-06 23:38 | -22.99453 | -43.47229 | 4857 ft | 171 kts | 62° |
| 2026-05-06 23:38 | -22.98892 | -43.46098 | 4562 ft | 168 kts | 62° |
| 2026-05-06 23:38 | -22.98359 | -43.45020 | 4532 ft | 152 kts | 62° |
| 2026-05-06 23:38 | -22.97857 | -43.44005 | 4783 ft | 159 kts | 62° |
| 2026-05-06 23:39 | -22.97316 | -43.42913 | 5145 ft | 169 kts | 62° |
| 2026-05-06 23:39 | -22.96747 | -43.41770 | 5570 ft | 174 kts | 62° |
| 2026-05-06 23:39 | -22.96162 | -43.40604 | 6016 ft | 176 kts | 62° |
| 2026-05-06 23:39 | -22.95555 | -43.39402 | 6127 ft | 194 kts | 62° |
| 2026-05-06 23:40 | -22.94878 | -43.38055 | 6097 ft | 211 kts | 62° |
| 2026-05-06 23:40 | -22.94158 | -43.36620 | 6097 ft | 221 kts | 62° |
| 2026-05-06 23:40 | -22.93416 | -43.35142 | 6097 ft | 222 kts | 62° |
| 2026-05-06 23:40 | -22.92690 | -43.33697 | 6094 ft | 221 kts | 62° |
| 2026-05-06 23:41 | -22.91956 | -43.32237 | 6092 ft | 220 kts | 62° |
| 2026-05-06 23:41 | -22.91223 | -43.30780 | 6089 ft | 219 kts | 62° |
| 2026-05-06 23:41 | -22.90494 | -43.29329 | 6089 ft | 219 kts | 62° |
| 2026-05-06 23:41 | -22.89764 | -43.27875 | 6091 ft | 219 kts | 62° |
| 2026-05-06 23:42 | -22.88984 | -43.26468 | 6088 ft | 218 kts | 57° |
| 2026-05-06 23:42 | -22.88126 | -43.25114 | 5984 ft | 214 kts | 56° |
| 2026-05-06 23:42 | -22.87367 | -43.23926 | 5659 ft | 196 kts | 56° |
| 2026-05-06 23:42 | -22.86621 | -43.22758 | 5298 ft | 182 kts | 56° |
| 2026-05-06 23:43 | -22.85963 | -43.21724 | 5056 ft | 148 kts | 56° |
| 2026-05-06 23:43 | -22.85414 | -43.20861 | 4633 ft | 136 kts | 56° |
| 2026-05-06 23:43 | -22.84869 | -43.19997 | 4195 ft | 134 kts | 56° |
| 2026-05-06 23:43 | -22.84360 | -43.19178 | 3712 ft | 130 kts | 56° |
| 2026-05-06 23:44 | -22.84065 | -43.18247 | 3007 ft | 137 kts | 93° |
| 2026-05-06 23:44 | -22.84580 | -43.17407 | 2279 ft | 141 kts | 146° |
| 2026-05-06 23:44 | -22.85455 | -43.16992 | 1612 ft | 129 kts | 155° |
| 2026-05-06 23:44 | -22.86251 | -43.16679 | 951 ft | 118 kts | 167° |
| 2026-05-06 23:45 | -22.87021 | -43.16555 | 532 ft | 105 kts | 171° |
| 2026-05-06 23:45 | -22.87757 | -43.16463 | 474 ft | 107 kts | 174° |
| 2026-05-06 23:45 | -22.88518 | -43.16439 | 464 ft | 109 kts | 177° |
| 2026-05-06 23:45 | -22.89256 | -43.16405 | 404 ft | 105 kts | 175° |
| 2026-05-06 23:46 | -22.89968 | -43.16359 | 211 ft | 100 kts | 174° |
| 2026-05-06 23:46 | -22.90646 | -43.16304 | 29 ft | 97 kts | 174° |
| 2026-05-06 23:46 | -22.91202 | -43.16268 | 16 ft | 55 kts | 177° |
| 2026-05-06 23:46 | -22.91322 | -43.16281 | 15 ft | 0 kts | 194° |
| 2026-05-06 23:47 | -22.91346 | -43.16339 | 14 ft | 19 kts | 268° |
| 2026-05-06 23:47 | -22.91352 | -43.16419 | 19 ft | 13 kts | 257° |
| 2026-05-06 23:47 | -22.91302 | -43.16509 | 19 ft | 21 kts | 358° |
| 2026-05-06 23:47 | -22.91130 | -43.16515 | 20 ft | 27 kts | 356° |
| 2026-05-06 23:48 | -22.90992 | -43.16541 | 20 ft | 23 kts | 355° |
| 2026-05-06 23:48 | -22.90871 | -43.16561 | 20 ft | 14 kts | 325° |
| 2026-05-06 23:48 | -22.90858 | -43.16604 | 20 ft | 10 kts | 263° |
| 2026-05-06 23:48 | -22.90860 | -43.16620 | 20 ft | 0 kts | 269° |